首页
METAR-TAF:

METAR-TAF

机场 :

圣莫里茨, 瑞士

纬度: 46-32-03N, 经度: 9-53-03E, 海拔: 1707米

当前天气观测

该预报发布于35分钟前的10:20 UTC
风速3节,风向多变
温度 13°C
湿度 35%
气压 1030 hPa
能见度10公里或以上
1500米以下无云,无积雨云

METAR: LSZS 261020Z AUTO VRB03KT CAVOK 13/M02 Q1030

时间: 12:55 (10:55 UTC)

预报

该预报发布于2小时和30分钟前的08:25 UTC
预报有效从26日的 09点(UTC)到 26日的 18点(UTC)
风速8节,风向东北
能见度10公里或以上
1500米以下无云,无积雨云
成为
从 26日的 10点(UTC)到 26日的 13点(UTC)
能见度10公里或以上
少量云层高于7000英尺

TAF: LSZS 260825Z 2609/2618 05008KT CAVOK TX15/2624Z BECMG 2610/2613 9999 FEW070

超过4000个机场的气象观测和天气预报(METAR&TAF报告)。

可查询的气象台以黄色和红色小点在地图上表示。

将鼠标移到小点上方,可查看气象台名称。

然后点击查看天气观测和预报。

如需切换地图:点击带黑十字的绿色按钮放大地图;点击带横线的绿色按钮缩小地图;或者点击绿色箭头查看邻近地区的地图。


METAR-TAF: